createdAt,value
2018-07-23T00:01:45.543Z,73.00
2018-07-23T00:04:15.678Z,72.70
2018-07-23T00:06:45.786Z,73.00
2018-07-23T00:09:15.932Z,73.20
2018-07-23T00:11:46.066Z,73.20
2018-07-23T00:14:16.174Z,73.00
2018-07-23T00:16:46.514Z,73.40
2018-07-23T00:19:17.114Z,73.70
2018-07-23T00:21:47.242Z,73.80
2018-07-23T00:24:17.380Z,73.70
2018-07-23T00:26:47.482Z,74.00
2018-07-23T00:29:17.626Z,74.10
2018-07-23T00:31:47.754Z,74.40
2018-07-23T00:34:18.191Z,74.30
2018-07-23T00:36:48.301Z,74.60
2018-07-23T00:39:18.438Z,74.70
2018-07-23T00:41:48.577Z,74.30
2018-07-23T00:44:18.874Z,74.70
2018-07-23T00:46:49.043Z,74.90
2018-07-23T00:49:19.234Z,75.10
2018-07-23T00:51:49.371Z,75.00
2018-07-23T00:54:19.506Z,74.80
2018-07-23T00:56:49.630Z,74.90
2018-07-23T00:59:19.766Z,74.80
2018-07-23T01:01:49.865Z,74.80
2018-07-23T01:04:19.990Z,75.00
2018-07-23T01:06:50.131Z,75.40
2018-07-23T01:09:20.270Z,75.00
2018-07-23T01:11:50.377Z,74.60
2018-07-23T01:14:21.131Z,75.20
2018-07-23T01:16:51.234Z,75.20
2018-07-23T01:19:21.450Z,75.00
2018-07-23T01:21:51.583Z,75.00
2018-07-23T01:24:21.709Z,75.00
2018-07-23T01:26:52.190Z,75.00
2018-07-23T01:29:22.294Z,75.30
2018-07-23T01:31:52.442Z,75.20
2018-07-23T01:34:22.580Z,75.80
2018-07-23T01:36:52.716Z,76.10
2018-07-23T01:39:22.831Z,76.10
2018-07-23T01:41:52.975Z,76.30
2018-07-23T01:44:23.107Z,76.50
2018-07-23T01:46:53.243Z,76.40
2018-07-23T01:49:23.385Z,76.70
2018-07-23T01:51:53.550Z,76.80
2018-07-23T01:54:23.702Z,77.00
2018-07-23T01:56:53.838Z,77.40
2018-07-23T01:59:23.947Z,77.20
2018-07-23T02:01:54.078Z,77.50
2018-07-23T02:04:24.236Z,77.40
2018-07-23T02:06:54.402Z,77.60
2018-07-23T02:09:24.503Z,77.30
2018-07-23T02:11:54.979Z,77.20
2018-07-23T02:14:25.129Z,77.20
2018-07-23T02:16:55.624Z,77.70
2018-07-23T02:19:25.808Z,77.80
2018-07-23T02:21:56.542Z,77.60
2018-07-23T02:24:26.653Z,77.90
2018-07-23T02:26:56.812Z,78.30
2018-07-23T02:29:27.282Z,78.00
2018-07-23T02:31:57.442Z,78.30
2018-07-23T02:34:27.631Z,78.40
2018-07-23T02:36:58.111Z,78.30
2018-07-23T02:39:28.218Z,78.60
2018-07-23T02:41:58.376Z,78.70
2018-07-23T02:44:28.514Z,78.70
2018-07-23T02:46:58.655Z,78.70
2018-07-23T02:49:28.811Z,78.90
2018-07-23T02:51:58.947Z,79.00
2018-07-23T02:54:29.071Z,79.10
2018-07-23T02:56:59.211Z,79.20
2018-07-23T02:59:29.384Z,79.10
2018-07-23T03:01:59.758Z,79.40
2018-07-23T03:04:29.894Z,79.30
2018-07-23T03:07:00.036Z,79.60
2018-07-23T03:09:30.178Z,79.60
2018-07-23T03:12:00.487Z,79.90
2018-07-23T03:14:31.888Z,79.80
2018-07-23T03:17:02.315Z,79.80
2018-07-23T03:19:32.453Z,80.20
2018-07-23T03:22:02.605Z,80.00
2018-07-23T03:24:32.915Z,80.50
2018-07-23T03:27:03.078Z,80.40
2018-07-23T03:29:33.223Z,80.50
2018-07-23T03:32:03.587Z,80.90
2018-07-23T03:34:33.706Z,81.00
2018-07-23T03:37:03.868Z,80.70
2018-07-23T03:39:33.980Z,81.20
2018-07-23T03:42:04.138Z,80.90
2018-07-23T03:44:34.270Z,80.80
2018-07-23T03:47:04.478Z,81.10
2018-07-23T03:49:34.627Z,81.10
2018-07-23T03:52:05.286Z,81.20
2018-07-23T03:54:35.766Z,81.20
2018-07-23T03:57:05.918Z,81.40
2018-07-23T03:59:36.410Z,81.60
2018-07-23T04:02:06.758Z,81.30
2018-07-23T04:04:36.902Z,81.30
2018-07-23T04:07:07.066Z,81.60
2018-07-23T04:09:37.214Z,81.50
2018-07-23T04:12:07.352Z,81.50
2018-07-23T04:14:37.486Z,81.60
2018-07-23T04:17:07.618Z,81.60
2018-07-23T04:19:38.173Z,82.00
2018-07-23T04:22:08.518Z,81.80
2018-07-23T04:24:38.626Z,81.60
2018-07-23T04:27:08.811Z,81.90
2018-07-23T04:29:38.950Z,82.00
2018-07-23T04:32:09.102Z,82.30
2018-07-23T04:34:39.255Z,82.40
2018-07-23T04:37:09.386Z,82.60
2018-07-23T04:39:39.518Z,82.70
2018-07-23T04:42:09.630Z,82.30
2018-07-23T04:44:39.783Z,82.10
2018-07-23T04:47:10.295Z,81.90
2018-07-23T04:49:40.430Z,82.10
2018-07-23T04:52:10.754Z,82.00
2018-07-23T04:54:40.930Z,82.10
2018-07-23T04:57:11.038Z,82.00
2018-07-23T04:59:41.198Z,81.60
2018-07-23T05:02:11.354Z,81.90
2018-07-23T05:04:41.452Z,81.60
2018-07-23T05:07:11.611Z,82.40
2018-07-23T05:09:41.773Z,81.50
2018-07-23T05:12:11.918Z,81.50
2018-07-23T05:14:42.086Z,81.20
2018-07-23T05:17:12.710Z,81.20
2018-07-23T05:19:43.154Z,81.10
2018-07-23T05:22:13.306Z,80.80
2018-07-23T05:24:43.442Z,80.70
2018-07-23T05:27:13.546Z,80.50
2018-07-23T05:29:43.719Z,80.40
2018-07-23T05:32:14.181Z,80.50
2018-07-23T05:34:50.874Z,80.40
2018-07-23T05:37:21.034Z,80.20
2018-07-23T05:39:51.203Z,79.90
2018-07-23T05:42:21.370Z,79.70
2018-07-23T05:44:51.497Z,79.50
2018-07-23T05:47:21.698Z,79.50
2018-07-23T05:49:51.813Z,78.90
2018-07-23T05:52:21.991Z,78.90
2018-07-23T05:54:52.142Z,78.70
2018-07-23T05:57:22.304Z,78.30
2018-07-23T05:59:52.417Z,78.70
2018-07-23T06:02:22.780Z,77.80
2018-07-23T06:04:53.294Z,77.40
2018-07-23T06:07:23.461Z,77.10
2018-07-23T06:09:53.609Z,76.70
2018-07-23T06:12:23.758Z,76.50
2018-07-23T06:14:53.890Z,76.10
2018-07-23T06:17:24.050Z,75.80
2018-07-23T06:19:54.758Z,75.70
2018-07-23T06:22:25.214Z,75.50
2018-07-23T06:24:55.395Z,74.90
2018-07-23T06:27:25.530Z,74.10
2018-07-23T06:29:55.681Z,74.30
2018-07-23T06:32:26.042Z,74.10
2018-07-23T06:34:56.446Z,73.40
2018-07-23T06:37:26.591Z,71.90
2018-07-23T06:39:56.918Z,72.00
2018-07-23T06:42:27.039Z,71.60
2018-07-23T06:44:57.191Z,70.10
2018-07-23T06:47:27.658Z,70.90
2018-07-23T06:49:57.808Z,70.40
2018-07-23T06:52:27.931Z,70.10
2018-07-23T06:54:58.078Z,68.80
2018-07-23T06:57:28.276Z,67.50
2018-07-23T06:59:58.578Z,68.90
2018-07-23T07:02:28.703Z,67.80
2018-07-23T07:04:58.863Z,67.80
2018-07-23T07:07:28.986Z,67.90
2018-07-23T07:09:59.130Z,66.00
2018-07-23T07:12:29.287Z,66.60
2018-07-23T07:14:59.432Z,66.10
2018-07-23T07:17:29.587Z,66.40
2018-07-23T07:20:00.154Z,66.30
2018-07-23T07:22:30.413Z,64.80
2018-07-23T07:25:00.563Z,63.00
2018-07-23T07:27:30.710Z,63.70
2018-07-23T07:30:00.861Z,63.50
2018-07-23T07:32:30.967Z,62.10
2018-07-23T07:35:01.163Z,62.90
2018-07-23T07:37:31.631Z,62.50
2018-07-23T07:40:01.515Z,62.40
2018-07-23T07:42:31.662Z,61.30
2018-07-23T07:45:01.871Z,62.00
2018-07-23T07:47:31.743Z,62.00
2018-07-23T07:50:01.735Z,61.60
2018-07-23T07:52:32.095Z,62.10
2018-07-23T07:55:01.951Z,63.70
2018-07-23T07:57:32.243Z,62.10
2018-07-23T08:00:02.370Z,62.00
2018-07-23T08:02:32.228Z,62.00
2018-07-23T08:05:02.343Z,61.90
2018-07-23T08:07:32.186Z,60.90
2018-07-23T08:10:02.034Z,61.60
2018-07-23T08:12:32.232Z,61.60
2018-07-23T08:15:02.227Z,59.30
2018-07-23T08:17:32.070Z,60.00
2018-07-23T08:20:02.003Z,60.60
2018-07-23T08:22:31.830Z,59.40
2018-07-23T08:25:02.045Z,59.40
2018-07-23T08:27:32.015Z,58.80
2018-07-23T08:30:01.871Z,58.50
2018-07-23T08:32:31.991Z,58.20
2018-07-23T08:35:02.534Z,59.00
2018-07-23T08:37:32.730Z,57.60
2018-07-23T08:40:03.302Z,58.70
2018-07-23T08:42:33.118Z,58.50
2018-07-23T08:45:03.116Z,59.10
2018-07-23T08:47:33.054Z,59.00
2018-07-23T08:50:03.382Z,57.30
2018-07-23T08:52:33.238Z,57.80
2018-07-23T08:55:03.130Z,58.50
2018-07-23T08:57:33.030Z,57.60
2018-07-23T09:00:03.239Z,57.10
2018-07-23T09:02:33.181Z,57.60
2018-07-23T09:05:03.034Z,58.00
2018-07-23T09:07:32.891Z,57.90
2018-07-23T09:10:02.718Z,59.10
2018-07-23T09:12:32.571Z,58.30
2018-07-23T09:15:02.388Z,57.70
2018-07-23T09:17:32.579Z,57.40
2018-07-23T09:20:03.605Z,57.40
2018-07-23T09:22:34.153Z,57.10
2018-07-23T09:25:04.281Z,56.30
2018-07-23T09:27:34.690Z,56.20
2018-07-23T09:30:05.620Z,56.10
2018-07-23T09:32:35.674Z,55.20
2018-07-23T09:35:05.562Z,55.50
2018-07-23T09:37:35.414Z,55.10
2018-07-23T09:40:05.885Z,53.60
2018-07-23T09:42:35.723Z,55.60
2018-07-23T09:45:05.618Z,53.80
2018-07-23T09:47:35.645Z,54.30
2018-07-23T09:50:05.684Z,53.60
2018-07-23T09:52:35.525Z,53.80
2018-07-23T09:55:05.571Z,53.60
2018-07-23T09:57:35.386Z,52.90
2018-07-23T10:00:05.426Z,53.10
2018-07-23T10:02:35.964Z,52.30
2018-07-23T10:05:05.890Z,53.40
2018-07-23T10:07:35.754Z,52.40
2018-07-23T10:10:05.618Z,51.50
2018-07-23T10:12:36.051Z,52.50
2018-07-23T10:15:05.988Z,53.00
2018-07-23T10:17:35.878Z,52.00
2018-07-23T10:20:06.241Z,51.30
2018-07-23T10:22:36.506Z,51.90
2018-07-23T10:25:06.750Z,52.60
2018-07-23T10:27:36.578Z,52.50
2018-07-23T10:30:06.752Z,51.90
2018-07-23T10:32:36.593Z,51.50
2018-07-23T10:35:06.668Z,50.80
2018-07-23T10:37:36.735Z,51.60
2018-07-23T10:40:06.662Z,51.50
2018-07-23T10:42:38.522Z,51.50
2018-07-23T10:45:08.455Z,51.50
2018-07-23T10:47:38.298Z,52.20
2018-07-23T10:50:08.175Z,51.60
2018-07-23T10:52:38.019Z,51.40
2018-07-23T10:55:07.950Z,51.20
2018-07-23T10:57:37.798Z,49.70
2018-07-23T11:00:08.075Z,50.00
2018-07-23T11:02:38.430Z,50.40
2018-07-23T11:05:08.827Z,49.40
2018-07-23T11:07:38.689Z,50.00
2018-07-23T11:10:09.079Z,49.60
2018-07-23T11:12:39.293Z,47.50
2018-07-23T11:15:10.263Z,48.40
2018-07-23T11:17:40.098Z,48.30
2018-07-23T11:20:11.738Z,46.80
2018-07-23T11:22:41.632Z,46.50
2018-07-23T11:25:39.876Z,47.50
2018-07-23T11:27:41.263Z,47.90
2018-07-23T11:30:11.107Z,48.30
2018-07-23T11:32:40.962Z,49.20
2018-07-23T11:35:10.954Z,49.40
2018-07-23T11:37:40.794Z,49.60
2018-07-23T11:40:10.610Z,48.70
2018-07-23T11:42:40.509Z,49.60
2018-07-23T11:45:10.509Z,49.60
2018-07-23T11:47:40.550Z,49.80
2018-07-23T11:50:10.550Z,50.60
2018-07-23T11:52:40.412Z,50.00
2018-07-23T11:55:10.242Z,50.20
2018-07-23T11:57:40.088Z,49.50
2018-07-23T12:00:10.282Z,49.30
2018-07-23T12:02:40.127Z,48.70
2018-07-23T12:05:09.936Z,48.60
2018-07-23T12:07:39.758Z,49.10
2018-07-23T12:10:09.598Z,50.00
2018-07-23T12:12:39.417Z,47.50
2018-07-23T12:15:09.602Z,48.40
2018-07-23T12:17:39.653Z,47.50
2018-07-23T12:20:09.666Z,48.50
2018-07-23T12:22:39.826Z,45.10
2018-07-23T12:25:09.678Z,44.80
2018-07-23T12:27:39.866Z,46.00
2018-07-23T12:30:09.823Z,46.30
2018-07-23T12:32:39.653Z,46.40
2018-07-23T12:35:09.570Z,45.60
2018-07-23T12:37:39.386Z,45.80
2018-07-23T12:40:09.248Z,46.10
2018-07-23T12:42:39.627Z,45.10
2018-07-23T12:45:09.836Z,44.50
2018-07-23T12:47:39.646Z,44.60
2018-07-23T12:50:09.514Z,46.10
2018-07-23T12:52:39.713Z,46.30
2018-07-23T12:55:09.926Z,46.40
2018-07-23T12:57:39.776Z,46.20
2018-07-23T13:00:09.827Z,47.00
2018-07-23T13:02:39.674Z,46.50
2018-07-23T13:05:09.490Z,45.20
2018-07-23T13:07:39.346Z,45.40
2018-07-23T13:10:09.232Z,44.70
2018-07-23T13:12:39.673Z,43.40
2018-07-23T13:15:09.522Z,45.20
2018-07-23T13:17:39.338Z,44.30
2018-07-23T13:20:09.537Z,42.90
2018-07-23T13:22:39.362Z,43.80
2018-07-23T13:25:09.222Z,44.20
2018-07-23T13:27:39.378Z,44.40
2018-07-23T13:30:09.319Z,44.10
2018-07-23T13:32:39.417Z,44.60
2018-07-23T13:35:09.286Z,44.70
2018-07-23T13:37:39.442Z,44.40
2018-07-23T13:40:09.634Z,44.60
2018-07-23T13:42:39.447Z,44.40
2018-07-23T13:45:09.297Z,44.70
2018-07-23T13:47:39.631Z,45.30
2018-07-23T13:50:09.486Z,45.20
2018-07-23T13:52:39.336Z,45.00
2018-07-23T13:55:09.190Z,44.70
2018-07-23T13:57:39.031Z,43.80
2018-07-23T14:00:09.217Z,43.80
2018-07-23T14:02:39.043Z,42.90
2018-07-23T14:05:08.899Z,42.90
2018-07-23T14:07:38.710Z,42.00
2018-07-23T14:10:08.613Z,42.50
2018-07-23T14:12:38.804Z,42.80
2018-07-23T14:15:08.878Z,43.20
2018-07-23T14:17:39.206Z,42.60
2018-07-23T14:20:09.083Z,42.40
2018-07-23T14:22:38.902Z,42.80
2018-07-23T14:25:08.739Z,43.40
2018-07-23T14:27:38.607Z,43.60
2018-07-23T14:30:08.474Z,43.50
2018-07-23T14:32:38.558Z,44.60
2018-07-23T14:35:08.410Z,44.60
2018-07-23T14:37:38.614Z,44.30
2018-07-23T14:40:08.447Z,44.30
2018-07-23T14:42:38.283Z,44.50
2018-07-23T14:45:08.311Z,44.40
2018-07-23T14:47:38.130Z,44.70
2018-07-23T14:50:07.994Z,44.90
2018-07-23T14:52:38.154Z,45.00
2018-07-23T14:55:08.015Z,44.10
2018-07-23T14:57:37.856Z,44.30
2018-07-23T15:00:07.926Z,44.20
2018-07-23T15:02:37.770Z,43.90
2018-07-23T15:05:07.626Z,43.90
2018-07-23T15:07:37.455Z,44.90
2018-07-23T15:10:07.322Z,45.00
2018-07-23T15:12:37.150Z,44.10
2018-07-23T15:15:08.027Z,44.70
2018-07-23T15:17:37.866Z,45.20
2018-07-23T15:20:07.690Z,43.60
2018-07-23T15:22:37.528Z,44.00
2018-07-23T15:25:07.349Z,44.60
2018-07-23T15:27:37.171Z,44.40
2018-07-23T15:30:07.024Z,44.30
2018-07-23T15:32:36.858Z,45.10
2018-07-23T15:35:06.715Z,45.20
2018-07-23T15:37:36.585Z,44.90
2018-07-23T15:40:06.526Z,44.70
2018-07-23T15:42:36.386Z,44.20
2018-07-23T15:45:06.501Z,44.30
2018-07-23T15:47:36.459Z,44.40
2018-07-23T15:50:06.335Z,44.70
2018-07-23T15:52:36.360Z,44.00
2018-07-23T15:55:06.758Z,44.80
2018-07-23T15:57:36.946Z,43.30
2018-07-23T16:00:06.914Z,44.00
2018-07-23T16:02:36.743Z,44.80
2018-07-23T16:05:06.803Z,44.90
2018-07-23T16:07:36.653Z,44.40
2018-07-23T16:10:06.817Z,45.20
2018-07-23T16:12:36.649Z,46.50
2018-07-23T16:15:07.734Z,46.10
2018-07-23T16:17:37.984Z,46.00
2018-07-23T16:20:07.982Z,45.90
2018-07-23T16:22:37.822Z,44.10
2018-07-23T16:25:08.533Z,43.10
2018-07-23T16:27:38.374Z,44.50
2018-07-23T16:30:09.074Z,45.70
2018-07-23T16:32:39.392Z,44.50
2018-07-23T16:35:10.651Z,44.10
2018-07-23T16:37:40.526Z,44.00
2018-07-23T16:40:10.494Z,44.20
2018-07-23T16:42:40.690Z,45.20
2018-07-23T16:45:10.850Z,44.80
2018-07-23T16:47:40.722Z,44.60
2018-07-23T16:50:10.554Z,45.00
2018-07-23T16:52:40.399Z,45.10
2018-07-23T16:55:10.555Z,45.00
2018-07-23T16:57:40.408Z,45.50
2018-07-23T17:00:10.583Z,45.30
2018-07-23T17:02:40.418Z,44.90
2018-07-23T17:05:10.263Z,45.70
2018-07-23T17:07:40.094Z,44.60
2018-07-23T17:10:09.962Z,44.30
2018-07-23T17:12:39.794Z,44.50
2018-07-23T17:15:09.615Z,45.20
2018-07-23T17:17:39.450Z,45.70
2018-07-23T17:20:09.282Z,45.60
2018-07-23T17:22:39.142Z,45.60
2018-07-23T17:25:08.986Z,45.60
2018-07-23T17:27:38.844Z,45.60
2018-07-23T17:30:08.846Z,44.90
2018-07-23T17:32:38.652Z,45.70
2018-07-23T17:35:08.542Z,45.70
2018-07-23T17:37:38.369Z,45.80
2018-07-23T17:40:08.744Z,45.90
2018-07-23T17:42:38.602Z,46.80
2018-07-23T17:45:08.472Z,47.20
2018-07-23T17:47:38.465Z,47.40
2018-07-23T17:50:08.274Z,47.80
2018-07-23T17:52:38.118Z,47.80
2018-07-23T17:55:07.994Z,47.80
2018-07-23T17:57:38.009Z,47.80
2018-07-23T18:00:08.318Z,48.20
2018-07-23T18:02:38.698Z,48.40
2018-07-23T18:05:09.346Z,48.50
2018-07-23T18:07:39.167Z,48.40
2018-07-23T18:10:09.272Z,48.40
2018-07-23T18:12:39.782Z,49.00
2018-07-23T18:15:11.066Z,47.80
2018-07-23T18:17:42.254Z,48.00
2018-07-23T18:20:12.845Z,48.30
2018-07-23T18:22:43.245Z,48.60
2018-07-23T18:25:14.061Z,49.40
2018-07-23T18:27:44.049Z,49.40
2018-07-23T18:30:14.003Z,48.70
2018-07-23T18:32:44.078Z,49.10
2018-07-23T18:35:13.947Z,49.20
2018-07-23T18:37:43.919Z,49.80
2018-07-23T18:40:13.986Z,50.80
2018-07-23T18:42:43.888Z,51.40
2018-07-23T18:45:14.971Z,52.00
2018-07-23T18:47:45.028Z,52.60
2018-07-23T18:50:15.332Z,52.20
2018-07-23T18:52:45.638Z,52.10
2018-07-23T18:55:15.446Z,52.30
2018-07-23T18:57:45.314Z,52.40
2018-07-23T19:00:15.155Z,52.90
2018-07-23T19:02:44.994Z,52.90
2018-07-23T19:05:14.851Z,53.10
2018-07-23T19:07:44.718Z,53.70
2018-07-23T19:10:14.555Z,53.70
2018-07-23T19:12:44.410Z,53.70
2018-07-23T19:15:14.286Z,53.70
2018-07-23T19:17:44.874Z,54.70
2018-07-23T19:20:14.809Z,54.70
2018-07-23T19:22:44.770Z,55.00
2018-07-23T19:25:14.603Z,55.40
2018-07-23T19:27:44.810Z,56.10
2018-07-23T19:30:14.654Z,56.40
2018-07-23T19:32:51.071Z,56.60
2018-07-23T19:35:21.014Z,56.70
2018-07-23T19:37:50.995Z,56.50
2018-07-23T19:40:21.308Z,56.90
2018-07-23T19:42:51.123Z,57.80
2018-07-23T19:45:21.120Z,58.00
2018-07-23T19:47:51.210Z,58.50
2018-07-23T19:50:21.194Z,59.30
2018-07-23T19:52:51.024Z,58.20
2018-07-23T19:55:20.861Z,58.40
2018-07-23T19:57:50.667Z,58.60
2018-07-23T20:00:20.538Z,58.80
2018-07-23T20:02:50.377Z,59.40
2018-07-23T20:05:20.215Z,59.80
2018-07-23T20:07:50.057Z,60.20
2018-07-23T20:10:19.899Z,60.30
2018-07-23T20:12:49.746Z,61.30
2018-07-23T20:15:19.758Z,61.50
2018-07-23T20:17:50.546Z,61.20
2018-07-23T20:20:20.362Z,61.90
2018-07-23T20:22:50.220Z,62.70
2018-07-23T20:25:20.066Z,63.00
2018-07-23T20:27:49.906Z,63.00
2018-07-23T20:30:19.774Z,63.20
2018-07-23T20:32:50.293Z,63.20
2018-07-23T20:35:20.363Z,63.40
2018-07-23T20:37:50.229Z,64.20
2018-07-23T20:40:20.398Z,64.20
2018-07-23T20:42:50.764Z,64.60
2018-07-23T20:45:20.576Z,64.60
2018-07-23T20:47:50.414Z,64.30
2018-07-23T20:50:22.223Z,64.50
2018-07-23T20:52:52.139Z,64.90
2018-07-23T20:55:21.922Z,65.60
2018-07-23T20:57:51.763Z,66.30
2018-07-23T21:00:21.656Z,66.70
2018-07-23T21:02:51.650Z,67.50
2018-07-23T21:05:22.047Z,66.50
2018-07-23T21:07:52.023Z,66.60
2018-07-23T21:10:22.290Z,66.50
2018-07-23T21:12:52.490Z,66.90
2018-07-23T21:15:22.349Z,66.70
2018-07-23T21:17:52.550Z,67.50
2018-07-23T21:20:22.566Z,67.20
2018-07-23T21:22:52.767Z,67.70
2018-07-23T21:25:22.832Z,68.00
2018-07-23T21:27:53.175Z,68.40
2018-07-23T21:30:23.110Z,68.60
2018-07-23T21:32:52.948Z,68.80
2018-07-23T21:35:22.814Z,68.90
2018-07-23T21:37:52.707Z,68.90
2018-07-23T21:40:22.581Z,69.00
2018-07-23T21:42:52.402Z,68.80
2018-07-23T21:45:22.248Z,68.60
2018-07-23T21:47:52.102Z,69.10
2018-07-23T21:50:22.806Z,69.30
2018-07-23T21:52:52.602Z,69.10
2018-07-23T21:55:22.522Z,69.50
2018-07-23T21:57:52.382Z,69.50
2018-07-23T22:00:22.275Z,69.90
2018-07-23T22:02:52.090Z,70.10
2018-07-23T22:05:22.031Z,70.40
2018-07-23T22:07:51.879Z,70.80
2018-07-23T22:10:21.720Z,71.90
2018-07-23T22:12:52.654Z,71.70
2018-07-23T22:15:22.504Z,71.60
2018-07-23T22:17:52.327Z,71.60
2018-07-23T22:20:22.218Z,71.60
2018-07-23T22:22:52.059Z,71.30
2018-07-23T22:25:22.134Z,71.80
2018-07-23T22:27:52.110Z,72.20
2018-07-23T22:30:21.960Z,71.60
2018-07-23T22:32:51.791Z,71.90
2018-07-23T22:35:21.635Z,72.10
2018-07-23T22:37:51.502Z,72.20
2018-07-23T22:40:21.346Z,72.50
2018-07-23T22:42:51.186Z,72.60
2018-07-23T22:45:20.998Z,72.70
2018-07-23T22:47:50.838Z,73.20
2018-07-23T22:50:20.657Z,73.00
2018-07-23T22:52:50.494Z,72.90
2018-07-23T22:55:20.502Z,72.80
2018-07-23T22:57:50.354Z,73.20
2018-07-23T23:00:20.842Z,73.80
2018-07-23T23:02:51.269Z,73.40
2018-07-23T23:05:27.707Z,73.20
2018-07-23T23:07:57.534Z,73.20
2018-07-23T23:10:27.734Z,73.50
2018-07-23T23:12:58.227Z,74.20
2018-07-23T23:15:28.235Z,74.30
2018-07-23T23:17:58.055Z,75.10
2018-07-23T23:20:28.179Z,75.20
2018-07-23T23:22:58.311Z,75.50
2018-07-23T23:25:28.463Z,75.40
2018-07-23T23:27:58.619Z,75.40
2018-07-23T23:30:29.378Z,75.30
2018-07-23T23:32:59.474Z,75.10
2018-07-23T23:35:29.604Z,75.20
2018-07-23T23:37:59.695Z,75.20
2018-07-23T23:40:29.833Z,76.00
2018-07-23T23:43:00.170Z,75.30
2018-07-23T23:45:30.638Z,75.30
2018-07-23T23:48:00.788Z,75.40
2018-07-23T23:50:30.911Z,75.70
2018-07-23T23:53:01.055Z,76.30
2018-07-23T23:55:31.510Z,76.70
2018-07-23T23:58:01.624Z,76.80
